San Diego, California
Current Conditions -  °F | °C
As of 12:51 AM on Friday 28 Nov 2014 (Local Time) from KSAN Reporting Station
Clear Clear  
Wind Chill: 59°   Ceiling: Unl
Heat Index: 59°   Visibility: 10mi
Dew Point: 37°   Wind: 0mph
Humidity: 44%   Direction: NA
Pressure: 30.01"   Gusts: NA
Location:  32.72°N, 117.16°W
Report Text: KSAN 280851Z 00000KT 10SM CLR 15/03 A3001 RMK AO2 SLP162 T01500028 57006 $
Loading
Personal Weather Stations






























Interactive Weather Map New forecast layout! Learn more

10-Day Weather Forecast

Advertisements
Track Severe Weather on mobile